Time;durP1;ratioP1;P1;durP2;ratioP2;P2;SDS_P1;SDS_P2;PMS_P1;PMS_P2;Temp;Humidity;BMP_temperature;BMP_pressure;BME280_temperature;BME280_humidity;BME280_pressure;Samples;Min_cycle;Max_cycle;Signal;HPM_P1;HPM_P2
2021/10/10 00:03:21;;;;;;;;;;;19.40;45.80;;;;;;8234265;28;20276;-48
2021/10/10 00:07:21;;;;;;;;;;;19.40;45.80;;;;;;8234151;28;19918;-49
2021/10/10 00:11:23;;;;;;;;;;;19.30;45.70;;;;;;8234866;28;19929;-48
2021/10/10 00:15:24;;;;;;;;;;;19.30;45.80;;;;;;8233831;28;19914;-47
2021/10/10 00:19:24;;;;;;;;;;;19.30;45.80;;;;;;8233943;28;20367;-48
2021/10/10 00:23:25;;;;;;;;;;;19.30;45.80;;;;;;8234110;28;19918;-48
2021/10/10 00:27:25;;;;;;;;;;;19.30;45.80;;;;;;8234349;28;20334;-48
2021/10/10 00:31:26;;;;;;;;;;;19.30;45.80;;;;;;8233691;28;20275;-48
2021/10/10 00:35:26;;;;;;;;;;;19.30;45.80;;;;;;8233840;28;19916;-48
2021/10/10 00:39:26;;;;;;;;;;;19.30;45.80;;;;;;8233064;28;19929;-48
2021/10/10 00:43:27;;;;;;;;;;;19.20;45.70;;;;;;8234288;28;19910;-48
2021/10/10 00:47:27;;;;;;;;;;;19.20;45.70;;;;;;8233371;28;20387;-48
2021/10/10 00:51:31;;;;;;;;;;;19.20;45.80;;;;;;8232882;28;19914;-47
2021/10/10 00:55:33;;;;;;;;;;;19.20;45.80;;;;;;8233291;28;19997;-47
2021/10/10 00:59:36;;;;;;;;;;;19.20;45.80;;;;;;8233347;28;19922;-49
2021/10/10 01:03:37;;;;;;;;;;;19.20;45.70;;;;;;8233359;28;19910;-48
2021/10/10 01:07:37;;;;;;;;;;;19.20;45.80;;;;;;8232485;28;19949;-49
2021/10/10 01:11:38;;;;;;;;;;;19.20;45.80;;;;;;8232759;28;19914;-49
2021/10/10 01:15:39;;;;;;;;;;;19.20;45.80;;;;;;8232978;28;19921;-49
2021/10/10 01:19:41;;;;;;;;;;;19.20;45.70;;;;;;8237826;28;19925;-49
2021/10/10 01:23:42;;;;;;;;;;;19.20;45.70;;;;;;8239050;28;19922;-49
2021/10/10 01:27:42;;;;;;;;;;;19.20;45.70;;;;;;8239238;28;19925;-49
2021/10/10 01:31:42;;;;;;;;;;;19.20;45.70;;;;;;8239136;28;19984;-48
2021/10/10 01:35:43;;;;;;;;;;;19.10;45.70;;;;;;8239179;28;19917;-49
2021/10/10 01:39:44;;;;;;;;;;;19.10;45.70;;;;;;8239245;28;19965;-51
2021/10/10 01:43:44;;;;;;;;;;;19.10;45.70;;;;;;8238925;28;19921;-52
2021/10/10 01:47:44;;;;;;;;;;;19.10;45.70;;;;;;8238357;28;19957;-49
2021/10/10 01:51:45;;;;;;;;;;;19.10;45.60;;;;;;8238595;28;23058;-48
2021/10/10 01:55:45;;;;;;;;;;;19.10;45.70;;;;;;8239375;28;19941;-49
2021/10/10 01:59:46;;;;;;;;;;;19.10;45.70;;;;;;8237745;28;20443;-49
2021/10/10 02:03:46;;;;;;;;;;;19.10;45.70;;;;;;8238363;28;20008;-49
2021/10/10 02:07:48;;;;;;;;;;;19.10;45.60;;;;;;8238262;28;20362;-49
2021/10/10 02:11:49;;;;;;;;;;;19.10;45.60;;;;;;8238308;28;20037;-48
2021/10/10 02:15:49;;;;;;;;;;;19.10;45.70;;;;;;8237874;28;20442;-48
2021/10/10 02:19:50;;;;;;;;;;;19.10;45.60;;;;;;8237641;28;20011;-48
2021/10/10 02:23:50;;;;;;;;;;;19.10;45.60;;;;;;8237184;28;19914;-48
2021/10/10 02:27:51;;;;;;;;;;;19.00;45.60;;;;;;8237342;28;19912;-50
2021/10/10 02:31:51;;;;;;;;;;;19.00;45.60;;;;;;8237405;28;19910;-52
2021/10/10 02:35:51;;;;;;;;;;;19.00;45.60;;;;;;8236844;28;20322;-48
2021/10/10 02:39:52;;;;;;;;;;;19.00;45.60;;;;;;8237467;28;19980;-48
2021/10/10 02:43:52;;;;;;;;;;;19.00;45.60;;;;;;8237645;28;19965;-47
2021/10/10 02:47:53;;;;;;;;;;;19.00;45.60;;;;;;8238193;28;19917;-48
2021/10/10 02:51:53;;;;;;;;;;;19.00;45.60;;;;;;8237595;28;19968;-51
2021/10/10 02:55:53;;;;;;;;;;;18.90;45.60;;;;;;8237574;28;20300;-51
2021/10/10 02:59:54;;;;;;;;;;;19.00;45.60;;;;;;8236103;28;19961;-48
2021/10/10 03:03:54;;;;;;;;;;;19.00;45.60;;;;;;8237434;28;19917;-48
2021/10/10 03:07:55;;;;;;;;;;;18.90;45.60;;;;;;8236547;28;19918;-48
2021/10/10 03:11:56;;;;;;;;;;;18.90;45.50;;;;;;8235746;28;19982;-48
2021/10/10 03:15:57;;;;;;;;;;;18.90;45.50;;;;;;8236391;28;19921;-48
2021/10/10 03:19:57;;;;;;;;;;;18.90;45.60;;;;;;8236056;28;19972;-48
2021/10/10 03:23:58;;;;;;;;;;;18.90;45.60;;;;;;8236103;28;20303;-49
2021/10/10 03:27:58;;;;;;;;;;;18.90;45.60;;;;;;8235686;28;20360;-47
2021/10/10 03:31:59;;;;;;;;;;;18.90;46.20;;;;;;8235452;28;20401;-48
2021/10/10 03:35:59;;;;;;;;;;;18.90;45.60;;;;;;8235033;28;19965;-47
2021/10/10 03:40:00;;;;;;;;;;;18.90;45.60;;;;;;8236054;28;19981;-48
2021/10/10 03:44:00;;;;;;;;;;;18.90;45.60;;;;;;8235193;28;19961;-47
2021/10/10 03:48:01;;;;;;;;;;;18.90;45.60;;;;;;8234724;28;19914;-48
2021/10/10 03:52:01;;;;;;;;;;;18.80;45.60;;;;;;8235223;28;20001;-49
2021/10/10 03:56:02;;;;;;;;;;;18.90;45.70;;;;;;8235709;28;20090;-48
2021/10/10 04:00:06;;;;;;;;;;;18.90;45.60;;;;;;8234303;28;19921;-49
2021/10/10 04:04:06;;;;;;;;;;;18.90;45.70;;;;;;8234861;28;19914;-48
2021/10/10 04:08:07;;;;;;;;;;;18.90;45.70;;;;;;8233986;28;19992;-48
2021/10/10 04:12:07;;;;;;;;;;;18.90;45.60;;;;;;8233975;28;19960;-48
2021/10/10 04:16:08;;;;;;;;;;;18.80;45.60;;;;;;8235127;28;19956;-49
2021/10/10 04:20:09;;;;;;;;;;;18.80;45.60;;;;;;8234154;28;19929;-48
2021/10/10 04:24:09;;;;;;;;;;;18.90;45.60;;;;;;8233677;28;20302;-48
2021/10/10 04:28:10;;;;;;;;;;;18.80;45.60;;;;;;8234080;28;20012;-48
2021/10/10 04:32:10;;;;;;;;;;;18.80;45.60;;;;;;8234661;28;19914;-48
2021/10/10 04:36:11;;;;;;;;;;;18.80;45.60;;;;;;8233182;28;19925;-48
2021/10/10 04:40:11;;;;;;;;;;;18.80;45.60;;;;;;8233561;28;19929;-48
2021/10/10 04:44:12;;;;;;;;;;;18.80;45.60;;;;;;8233598;28;19953;-48
2021/10/10 04:48:12;;;;;;;;;;;18.80;45.70;;;;;;8233278;28;19918;-49
2021/10/10 04:52:13;;;;;;;;;;;18.80;45.70;;;;;;8233541;28;19928;-48
2021/10/10 04:56:13;;;;;;;;;;;18.70;45.60;;;;;;8233546;28;19920;-47
2021/10/10 05:00:13;;;;;;;;;;;18.70;45.50;;;;;;8232842;28;19969;-48
2021/10/10 05:04:14;;;;;;;;;;;18.70;45.60;;;;;;8233227;28;19918;-48
2021/10/10 05:08:14;;;;;;;;;;;18.70;45.60;;;;;;8233845;28;20256;-49
2021/10/10 05:12:15;;;;;;;;;;;18.70;45.60;;;;;;8232494;28;19921;-48
2021/10/10 05:16:15;;;;;;;;;;;18.80;45.60;;;;;;8233150;28;19914;-48
2021/10/10 05:20:16;;;;;;;;;;;18.70;45.50;;;;;;8232754;28;19922;-48
2021/10/10 05:24:16;;;;;;;;;;;18.70;45.60;;;;;;8233209;28;19968;-47
2021/10/10 05:28:17;;;;;;;;;;;18.70;45.60;;;;;;8232822;28;19980;-47
2021/10/10 05:32:17;;;;;;;;;;;18.70;45.60;;;;;;8232535;28;20268;-48
2021/10/10 05:36:18;;;;;;;;;;;18.70;45.50;;;;;;8232144;28;20276;-48
2021/10/10 05:40:18;;;;;;;;;;;18.70;45.50;;;;;;8232564;28;19918;-48
2021/10/10 05:44:18;;;;;;;;;;;18.70;45.50;;;;;;8233420;28;19910;-48
2021/10/10 05:48:19;;;;;;;;;;;18.70;45.60;;;;;;8232185;28;19921;-49
2021/10/10 05:52:23;;;;;;;;;;;18.60;45.50;;;;;;8232412;28;19925;-49
2021/10/10 05:56:24;;;;;;;;;;;18.70;45.50;;;;;;8232546;28;19914;-49
2021/10/10 06:00:25;;;;;;;;;;;18.70;45.50;;;;;;8232727;28;20408;-47
2021/10/10 06:04:25;;;;;;;;;;;18.60;45.50;;;;;;8233714;28;19914;-49
2021/10/10 06:08:26;;;;;;;;;;;18.60;45.50;;;;;;8238220;28;19910;-48
2021/10/10 06:12:26;;;;;;;;;;;18.60;45.40;;;;;;8237664;28;20331;-49
2021/10/10 06:16:27;;;;;;;;;;;18.60;45.40;;;;;;8238855;28;19992;-49
2021/10/10 06:20:28;;;;;;;;;;;18.60;45.40;;;;;;8237755;28;19926;-52
2021/10/10 06:24:28;;;;;;;;;;;18.60;45.40;;;;;;8237120;28;19914;-50
2021/10/10 06:28:29;;;;;;;;;;;18.60;45.40;;;;;;8237345;28;19910;-49
2021/10/10 06:32:29;;;;;;;;;;;18.60;45.30;;;;;;8237443;28;19928;-50
2021/10/10 06:36:30;;;;;;;;;;;18.60;45.40;;;;;;8238203;28;20315;-49
2021/10/10 06:40:30;;;;;;;;;;;18.60;45.30;;;;;;8237218;28;19922;-52
2021/10/10 06:44:31;;;;;;;;;;;18.60;45.30;;;;;;8236982;28;19911;-53
2021/10/10 06:48:32;;;;;;;;;;;18.60;45.30;;;;;;8236388;28;19942;-53
2021/10/10 06:52:32;;;;;;;;;;;18.60;45.30;;;;;;8237726;28;19929;-52
2021/10/10 06:56:33;;;;;;;;;;;18.60;45.30;;;;;;8236595;28;19940;-49
2021/10/10 07:00:33;;;;;;;;;;;18.60;45.40;;;;;;8236123;28;20295;-50
2021/10/10 07:04:34;;;;;;;;;;;18.60;45.90;;;;;;8235829;28;19914;-48
2021/10/10 07:08:34;;;;;;;;;;;18.60;45.30;;;;;;8237081;28;19910;-49
2021/10/10 07:12:35;;;;;;;;;;;18.60;45.30;;;;;;8235809;28;20324;-49
2021/10/10 07:16:35;;;;;;;;;;;18.60;45.30;;;;;;8235748;28;19949;-51
2021/10/10 07:25:09;;;;;;;;;;;18.50;45.30;;;;;;8245731;28;20009;-49
2021/10/10 07:29:09;;;;;;;;;;;18.50;45.30;;;;;;8236392;28;20376;-49
2021/10/10 07:33:10;;;;;;;;;;;18.50;45.30;;;;;;8235063;28;19992;-48
2021/10/10 07:37:10;;;;;;;;;;;18.50;45.30;;;;;;8235378;28;20295;-49
2021/10/10 07:41:11;;;;;;;;;;;18.50;45.30;;;;;;8235203;28;19926;-49
2021/10/10 07:45:13;;;;;;;;;;;18.50;45.30;;;;;;8234837;28;20331;-49
2021/10/10 07:49:13;;;;;;;;;;;18.50;45.30;;;;;;8235736;28;19914;-48
2021/10/10 07:53:14;;;;;;;;;;;18.50;45.30;;;;;;8235517;28;20334;-51
2021/10/10 07:57:14;;;;;;;;;;;18.60;45.30;;;;;;8234406;28;19985;-49
2021/10/10 08:01:15;;;;;;;;;;;18.50;45.30;;;;;;8234934;28;19929;-49
2021/10/10 08:05:16;;;;;;;;;;;18.50;45.30;;;;;;8235450;28;19917;-48
2021/10/10 08:09:17;;;;;;;;;;;18.50;45.30;;;;;;8234089;28;19917;-51
2021/10/10 08:13:17;;;;;;;;;;;18.60;45.40;;;;;;8234363;28;19921;-49
2021/10/10 08:17:17;;;;;;;;;;;18.50;45.30;;;;;;8234324;28;20287;-49
2021/10/10 08:21:18;;;;;;;;;;;18.50;45.30;;;;;;8234468;28;19918;-49
2021/10/10 08:25:18;;;;;;;;;;;18.50;45.30;;;;;;8234039;28;19921;-50
2021/10/10 08:29:19;;;;;;;;;;;18.60;45.40;;;;;;8233086;28;19914;-49
2021/10/10 08:33:19;;;;;;;;;;;18.60;45.40;;;;;;8233383;28;19914;-49
2021/10/10 08:37:20;;;;;;;;;;;18.60;45.40;;;;;;8233986;28;19930;-48
2021/10/10 08:41:23;;;;;;;;;;;18.60;45.40;;;;;;8234179;28;19918;-49
2021/10/10 08:45:28;;;;;;;;;;;18.60;45.30;;;;;;8232812;28;20288;-51
2021/10/10 08:49:29;;;;;;;;;;;18.60;45.30;;;;;;8232845;28;19921;-49
2021/10/10 08:53:29;;;;;;;;;;;18.60;45.30;;;;;;8233886;28;20000;-49
2021/10/10 08:57:30;;;;;;;;;;;18.60;45.30;;;;;;8233440;28;19910;-49
2021/10/10 09:01:33;;;;;;;;;;;18.60;45.40;;;;;;8233340;28;19966;-49
2021/10/10 09:05:34;;;;;;;;;;;18.60;45.40;;;;;;8233253;28;19914;-50
2021/10/10 09:09:39;;;;;;;;;;;18.60;45.40;;;;;;8232533;28;19945;-48
2021/10/10 09:13:40;;;;;;;;;;;18.70;45.40;;;;;;8233003;28;20000;-49
2021/10/10 09:17:50;;;;;;;;;;;18.70;45.40;;;;;;8233286;28;19910;-50
2021/10/10 09:21:57;;;;;;;;;;;18.70;45.90;;;;;;8232899;28;20300;-53
2021/10/10 09:26:02;;;;;;;;;;;18.70;45.40;;;;;;8232838;28;20045;-50
2021/10/10 09:30:05;;;;;;;;;;;18.70;45.40;;;;;;8232583;28;19920;-50
2021/10/10 09:34:05;;;;;;;;;;;18.70;45.40;;;;;;8233466;28;19917;-51
2021/10/10 09:38:11;;;;;;;;;;;18.70;45.40;;;;;;8233834;28;20023;-49
2021/10/10 09:42:30;;;;;;;;;;;18.70;45.40;;;;;;8239205;28;19922;-52
2021/10/10 09:46:30;;;;;;;;;;;18.70;45.40;;;;;;8239340;28;19996;-49
2021/10/10 09:50:33;;;;;;;;;;;18.70;45.30;;;;;;8238843;28;20351;-49
2021/10/10 09:54:51;;;;;;;;;;;18.80;45.40;;;;;;8239431;28;19922;-47
2021/10/10 09:58:52;;;;;;;;;;;18.80;45.40;;;;;;8238428;28;19944;-49
2021/10/10 10:02:59;;;;;;;;;;;18.80;45.40;;;;;;8237968;28;19914;-48
2021/10/10 10:06:59;;;;;;;;;;;18.80;45.40;;;;;;8237545;28;19921;-49
2021/10/10 10:11:00;;;;;;;;;;;18.80;45.40;;;;;;8238114;28;20323;-50
2021/10/10 10:15:00;;;;;;;;;;;18.80;45.40;;;;;;8238450;28;20283;-52
2021/10/10 10:19:02;;;;;;;;;;;18.90;45.40;;;;;;8237840;28;19922;-50
2021/10/10 10:23:02;;;;;;;;;;;18.90;45.40;;;;;;8237889;28;19914;-48
2021/10/10 10:27:03;;;;;;;;;;;18.90;45.40;;;;;;8237146;28;20004;-47
2021/10/10 10:31:04;;;;;;;;;;;18.90;45.40;;;;;;8238551;28;19921;-49
2021/10/10 10:35:05;;;;;;;;;;;18.90;45.40;;;;;;8237359;28;19941;-48
2021/10/10 10:39:25;;;;;;;;;;;18.90;45.40;;;;;;8236807;28;19922;-49
2021/10/10 10:43:34;;;;;;;;;;;18.90;45.40;;;;;;8237111;28;19914;-48
2021/10/10 10:47:38;;;;;;;;;;;18.90;45.30;;;;;;8237195;28;20334;-48
2021/10/10 10:51:41;;;;;;;;;;;18.90;45.30;;;;;;8236887;28;20265;-48
2021/10/10 10:55:42;;;;;;;;;;;19.00;45.40;;;;;;8236914;28;19925;-48
2021/10/10 11:00:00;;;;;;;;;;;19.00;45.40;;;;;;8236190;28;20363;-49
2021/10/10 11:04:18;;;;;;;;;;;19.00;45.40;;;;;;8236878;28;19914;-50
2021/10/10 11:08:22;;;;;;;;;;;19.00;45.40;;;;;;8236412;28;19920;-49
2021/10/10 11:12:29;;;;;;;;;;;19.00;45.40;;;;;;8236689;28;19910;-50
2021/10/10 11:16:32;;;;;;;;;;;19.00;45.40;;;;;;8236342;28;20398;-51
2021/10/10 11:20:33;;;;;;;;;;;19.00;45.40;;;;;;8236176;28;19970;-48
2021/10/10 11:24:33;;;;;;;;;;;19.00;45.40;;;;;;8235679;28;20378;-49
2021/10/10 11:28:38;;;;;;;;;;;19.10;45.40;;;;;;8236530;28;20000;-50
2021/10/10 11:32:52;;;;;;;;;;;19.10;45.30;;;;;;8235554;28;19917;-50
2021/10/10 11:36:53;;;;;;;;;;;19.10;45.30;;;;;;8235597;28;19997;-49
2021/10/10 11:40:58;;;;;;;;;;;19.10;45.30;;;;;;8235551;28;20024;-49
2021/10/10 11:44:58;;;;;;;;;;;19.10;45.30;;;;;;8235004;28;19954;-49
2021/10/10 11:48:59;;;;;;;;;;;19.20;45.30;;;;;;8236161;28;20368;-49
2021/10/10 11:53:01;;;;;;;;;;;19.20;45.30;;;;;;8235215;28;20004;-52
2021/10/10 11:57:02;;;;;;;;;;;19.20;45.30;;;;;;8234569;28;19920;-49
2021/10/10 12:01:06;;;;;;;;;;;19.20;45.30;;;;;;8234954;28;20399;-48
2021/10/10 12:05:08;;;;;;;;;;;19.20;45.30;;;;;;8233775;28;19911;-49
2021/10/10 12:09:11;;;;;;;;;;;19.20;45.20;;;;;;8234666;28;19910;-51
2021/10/10 12:13:12;;;;;;;;;;;19.20;45.30;;;;;;8234793;28;19914;-49
2021/10/10 12:17:25;;;;;;;;;;;19.20;45.20;;;;;;8234398;28;20037;-48
2021/10/10 12:21:28;;;;;;;;;;;19.20;45.20;;;;;;8233731;28;19977;-49
2021/10/10 12:25:30;;;;;;;;;;;19.20;45.30;;;;;;8235184;28;20311;-49
2021/10/10 12:29:31;;;;;;;;;;;19.20;45.20;;;;;;8234106;28;20044;-49
2021/10/10 12:33:34;;;;;;;;;;;19.20;45.30;;;;;;8233453;28;19914;-49
2021/10/10 12:37:34;;;;;;;;;;;19.20;45.20;;;;;;8233987;28;20024;-49
2021/10/10 12:41:35;;;;;;;;;;;19.20;45.30;;;;;;8233846;28;19918;-49
2021/10/10 12:45:36;;;;;;;;;;;19.20;45.30;;;;;;8233904;28;19910;-49
2021/10/10 12:49:38;;;;;;;;;;;19.20;45.30;;;;;;8233667;28;19914;-52
2021/10/10 12:53:38;;;;;;;;;;;19.20;45.40;;;;;;8233534;28;20268;-50
2021/10/10 12:57:49;;;;;;;;;;;19.30;45.40;;;;;;8233428;28;19914;-49
2021/10/10 13:01:49;;;;;;;;;;;19.30;45.40;;;;;;8234131;28;19925;-51
2021/10/10 13:05:50;;;;;;;;;;;19.30;45.40;;;;;;8233012;28;19914;-49
2021/10/10 13:09:50;;;;;;;;;;;19.30;45.40;;;;;;8232467;28;20359;-50
2021/10/10 13:13:51;;;;;;;;;;;19.30;45.40;;;;;;8232688;28;20000;-49
2021/10/10 13:17:51;;;;;;;;;;;19.30;45.40;;;;;;8233373;28;19910;-48
2021/10/10 13:21:52;;;;;;;;;;;19.30;45.60;;;;;;8233804;28;20318;-48
2021/10/10 13:25:52;;;;;;;;;;;19.30;45.40;;;;;;8232886;28;19934;-49
2021/10/10 13:29:53;;;;;;;;;;;19.30;45.40;;;;;;8232629;28;20037;-49
2021/10/10 13:33:53;;;;;;;;;;;19.30;45.30;;;;;;8232766;28;19928;-49
2021/10/10 13:37:53;;;;;;;;;;;19.40;45.30;;;;;;8233598;28;19911;-49
2021/10/10 13:41:54;;;;;;;;;;;19.40;45.30;;;;;;8232159;28;20379;-49
2021/10/10 13:45:58;;;;;;;;;;;19.40;45.30;;;;;;8232675;28;20359;-49
2021/10/10 13:49:59;;;;;;;;;;;19.40;45.30;;;;;;8232702;28;19914;-50
2021/10/10 13:54:00;;;;;;;;;;;19.40;45.30;;;;;;8233114;28;19922;-52
2021/10/10 13:58:00;;;;;;;;;;;19.40;45.30;;;;;;8232344;28;19914;-49
2021/10/10 14:02:01;;;;;;;;;;;19.40;45.30;;;;;;8232346;28;19922;-48
2021/10/10 14:06:01;;;;;;;;;;;19.40;45.30;;;;;;8232003;28;20004;-52
2021/10/10 14:10:03;;;;;;;;;;;19.40;45.30;;;;;;8232669;28;19916;-49
2021/10/10 14:14:03;;;;;;;;;;;19.40;45.30;;;;;;8232984;28;20370;-52
2021/10/10 14:18:04;;;;;;;;;;;19.40;45.30;;;;;;8231870;28;19920;-52
2021/10/10 14:22:05;;;;;;;;;;;19.40;45.30;;;;;;8232210;28;19926;-49
2021/10/10 14:26:05;;;;;;;;;;;19.40;45.30;;;;;;8234428;28;19910;-48
2021/10/10 14:30:09;;;;;;;;;;;19.40;45.30;;;;;;8238175;28;20351;-49
2021/10/10 14:34:10;;;;;;;;;;;19.40;45.30;;;;;;8237745;28;19918;-50
2021/10/10 14:38:10;;;;;;;;;;;19.40;45.30;;;;;;8237664;28;19997;-49
2021/10/10 14:42:14;;;;;;;;;;;19.40;45.30;;;;;;8236739;28;19922;-48
2021/10/10 14:46:15;;;;;;;;;;;19.40;45.30;;;;;;8237987;28;19910;-50
2021/10/10 14:50:16;;;;;;;;;;;19.30;45.30;;;;;;8237333;28;19918;-49
2021/10/10 14:54:16;;;;;;;;;;;19.40;45.30;;;;;;8236980;28;20363;-50
2021/10/10 14:58:19;;;;;;;;;;;19.40;45.30;;;;;;8236761;28;19914;-48
2021/10/10 15:02:19;;;;;;;;;;;19.40;45.30;;;;;;8236797;28;20299;-49
2021/10/10 15:06:19;;;;;;;;;;;19.40;45.40;;;;;;8237046;28;19997;-50
2021/10/10 15:10:20;;;;;;;;;;;19.40;45.30;;;;;;8236459;28;19914;-50
2021/10/10 15:14:21;;;;;;;;;;;19.40;45.30;;;;;;8236545;28;19917;-49
2021/10/10 15:18:21;;;;;;;;;;;19.40;45.40;;;;;;8235944;28;19969;-50
2021/10/10 15:22:22;;;;;;;;;;;19.40;45.40;;;;;;8237055;28;19925;-49
2021/10/10 15:26:22;;;;;;;;;;;19.40;45.40;;;;;;8236243;28;19914;-49
2021/10/10 15:30:23;;;;;;;;;;;19.40;45.40;;;;;;8235680;28;19961;-49
2021/10/10 15:34:23;;;;;;;;;;;19.40;45.40;;;;;;8235892;28;20302;-49
2021/10/10 15:38:24;;;;;;;;;;;19.40;45.30;;;;;;8235489;28;20434;-48
2021/10/10 15:42:26;;;;;;;;;;;19.40;45.40;;;;;;8236274;28;19922;-49
2021/10/10 15:46:26;;;;;;;;;;;19.40;45.40;;;;;;8235436;28;19914;-48
2021/10/10 15:50:27;;;;;;;;;;;19.40;45.40;;;;;;8235418;28;19910;-49
2021/10/10 15:54:27;;;;;;;;;;;19.40;45.40;;;;;;8232199;28;19918;-52
2021/10/10 15:58:28;;;;;;;;;;;19.40;45.40;;;;;;8237483;28;20283;-49
2021/10/10 16:02:28;;;;;;;;;;;19.40;45.40;;;;;;8237921;28;19922;-48
2021/10/10 16:06:28;;;;;;;;;;;19.40;45.40;;;;;;8234203;28;19914;-49
2021/10/10 16:10:29;;;;;;;;;;;19.40;45.40;;;;;;8235219;28;20364;-53
2021/10/10 16:14:29;;;;;;;;;;;19.30;45.40;;;;;;8235361;28;20278;-49
2021/10/10 16:18:30;;;;;;;;;;;19.40;45.40;;;;;;8234072;28;19918;-48
2021/10/10 16:22:30;;;;;;;;;;;19.30;45.40;;;;;;8234345;28;20367;-48
2021/10/10 16:26:31;;;;;;;;;;;19.40;45.40;;;;;;8234333;28;19914;-48
2021/10/10 16:30:32;;;;;;;;;;;19.40;45.40;;;;;;8233786;28;19917;-48
2021/10/10 16:34:42;;;;;;;;;;;19.30;45.40;;;;;;8234767;28;20278;-49
2021/10/10 16:38:44;;;;;;;;;;;19.30;45.40;;;;;;8233765;28;19942;-48
2021/10/10 16:42:45;;;;;;;;;;;19.30;45.40;;;;;;8233617;28;19918;-48
2021/10/10 16:46:45;;;;;;;;;;;19.30;45.40;;;;;;8233483;28;20344;-49
2021/10/10 16:50:46;;;;;;;;;;;19.30;45.50;;;;;;8233273;28;19910;-48
2021/10/10 16:54:46;;;;;;;;;;;19.30;45.40;;;;;;8233888;28;19917;-48
2021/10/10 16:58:49;;;;;;;;;;;19.30;45.50;;;;;;8233120;28;19920;-49
2021/10/10 17:02:49;;;;;;;;;;;19.30;45.50;;;;;;8232878;28;20389;-49
2021/10/10 17:06:50;;;;;;;;;;;19.30;45.50;;;;;;8233270;28;19910;-49
2021/10/10 17:10:50;;;;;;;;;;;19.30;45.50;;;;;;8233963;28;20008;-49
2021/10/10 17:14:51;;;;;;;;;;;19.30;45.50;;;;;;8232592;28;19910;-50
2021/10/10 17:18:51;;;;;;;;;;;19.30;45.50;;;;;;8233262;28;19969;-49
2021/10/10 17:22:52;;;;;;;;;;;19.30;45.60;;;;;;8232954;28;19972;-48
2021/10/10 17:26:55;;;;;;;;;;;19.30;45.60;;;;;;8233156;28;19932;-49
2021/10/10 17:30:55;;;;;;;;;;;19.30;45.50;;;;;;8233077;28;19914;-49
2021/10/10 17:34:56;;;;;;;;;;;19.30;45.60;;;;;;8232789;28;19914;-50
2021/10/10 17:38:58;;;;;;;;;;;19.30;45.60;;;;;;8232302;28;19922;-49
2021/10/10 17:42:59;;;;;;;;;;;19.30;45.60;;;;;;8233400;28;19954;-48
2021/10/10 17:47:00;;;;;;;;;;;19.20;45.50;;;;;;8232555;28;19914;-49
2021/10/10 17:51:00;;;;;;;;;;;19.30;45.60;;;;;;8232134;28;19914;-48
2021/10/10 17:55:01;;;;;;;;;;;19.30;45.60;;;;;;8232619;28;20372;-49
2021/10/10 17:59:25;;;;;;;;;;;19.20;45.50;;;;;;8233489;28;19965;-49
2021/10/10 18:12:23;;;;;;;;;;;19.20;45.50;;;;;;8238458;28;20359;-48
2021/10/10 18:16:24;;;;;;;;;;;19.20;45.50;;;;;;8238321;28;19921;-52
2021/10/10 18:20:26;;;;;;;;;;;19.20;45.60;;;;;;8238008;28;20013;-51
2021/10/10 18:24:27;;;;;;;;;;;19.20;45.50;;;;;;8238194;28;20383;-51
2021/10/10 18:28:27;;;;;;;;;;;19.20;45.50;;;;;;8237619;28;19921;-49
2021/10/10 18:32:28;;;;;;;;;;;19.20;45.50;;;;;;8237418;28;19949;-48
2021/10/10 18:36:28;;;;;;;;;;;19.20;45.60;;;;;;8236965;28;19914;-49
2021/10/10 18:40:29;;;;;;;;;;;19.20;45.50;;;;;;8237441;28;19918;-49
2021/10/10 18:44:30;;;;;;;;;;;19.20;45.50;;;;;;8238110;28;19914;-48
2021/10/10 18:48:30;;;;;;;;;;;19.20;45.50;;;;;;8236734;28;19937;-49
2021/10/10 18:52:31;;;;;;;;;;;19.20;45.50;;;;;;8237452;28;20008;-49
2021/10/10 18:56:32;;;;;;;;;;;19.20;45.50;;;;;;8236838;28;20624;-48
2021/10/10 19:00:33;;;;;;;;;;;19.20;45.50;;;;;;8236982;28;19957;-49
2021/10/10 19:04:33;;;;;;;;;;;19.20;45.50;;;;;;8235854;28;20318;-50
2021/10/10 19:08:34;;;;;;;;;;;19.20;45.50;;;;;;8236570;28;19918;-49
2021/10/10 19:12:35;;;;;;;;;;;19.20;45.40;;;;;;8235296;28;20060;-49
2021/10/10 19:16:41;;;;;;;;;;;19.20;45.40;;;;;;8237013;28;20359;-48
2021/10/10 19:20:42;;;;;;;;;;;19.20;45.40;;;;;;8235785;28;19971;-49
2021/10/10 19:24:42;;;;;;;;;;;19.20;45.40;;;;;;8235990;28;19918;-49
2021/10/10 19:28:42;;;;;;;;;;;19.10;45.40;;;;;;8236011;28;19960;-49
2021/10/10 19:32:43;;;;;;;;;;;19.20;45.50;;;;;;8235445;28;20176;-48
2021/10/10 19:36:44;;;;;;;;;;;19.20;45.40;;;;;;8236802;28;19910;-49
2021/10/10 19:40:44;;;;;;;;;;;19.10;45.40;;;;;;8235778;28;19926;-48
2021/10/10 19:44:45;;;;;;;;;;;19.10;45.40;;;;;;8235106;28;19921;-49
2021/10/10 19:48:45;;;;;;;;;;;19.10;45.40;;;;;;8235207;28;19956;-49
2021/10/10 19:52:46;;;;;;;;;;;19.10;45.40;;;;;;8236076;28;19918;-48
2021/10/10 19:56:46;;;;;;;;;;;19.10;45.40;;;;;;8234504;28;19928;-49
2021/10/10 20:00:47;;;;;;;;;;;19.10;45.30;;;;;;8234823;28;19969;-49
2021/10/10 20:04:47;;;;;;;;;;;19.10;45.40;;;;;;8234856;28;19960;-49
2021/10/10 20:08:51;;;;;;;;;;;19.10;45.30;;;;;;8234409;28;19917;-48
2021/10/10 20:12:51;;;;;;;;;;;19.00;45.30;;;;;;8235203;28;20426;-51
2021/10/10 20:16:52;;;;;;;;;;;19.10;45.40;;;;;;8234422;28;20003;-49
2021/10/10 20:20:52;;;;;;;;;;;19.00;45.30;;;;;;8234024;28;19926;-49
2021/10/10 20:24:53;;;;;;;;;;;19.00;45.30;;;;;;8233448;28;19914;-49
2021/10/10 20:28:53;;;;;;;;;;;19.00;45.30;;;;;;8234684;28;19914;-49
2021/10/10 20:32:58;;;;;;;;;;;19.00;45.30;;;;;;8233539;28;20401;-49
2021/10/10 20:36:58;;;;;;;;;;;19.00;45.30;;;;;;8234149;28;20256;-49
2021/10/10 20:40:59;;;;;;;;;;;19.00;45.30;;;;;;8234046;28;20016;-49
2021/10/10 20:44:59;;;;;;;;;;;19.00;45.30;;;;;;8234186;28;19917;-49
2021/10/10 20:49:00;;;;;;;;;;;19.00;45.30;;;;;;8233914;28;19914;-48
2021/10/10 20:53:00;;;;;;;;;;;19.00;45.30;;;;;;8233992;28;19922;-49
2021/10/10 20:57:01;;;;;;;;;;;19.00;45.30;;;;;;8233146;28;19914;-48
2021/10/10 21:01:02;;;;;;;;;;;19.00;45.30;;;;;;8233217;28;19917;-48
2021/10/10 21:05:03;;;;;;;;;;;19.00;45.30;;;;;;8234178;28;19956;-49
2021/10/10 21:09:06;;;;;;;;;;;19.00;45.30;;;;;;8232796;28;19914;-48
2021/10/10 21:13:07;;;;;;;;;;;19.00;45.30;;;;;;8233301;28;19914;-49
2021/10/10 21:17:07;;;;;;;;;;;19.00;45.30;;;;;;8233161;28;19984;-49
2021/10/10 21:21:08;;;;;;;;;;;19.00;45.20;;;;;;8233268;28;19925;-48
2021/10/10 21:25:09;;;;;;;;;;;19.00;45.20;;;;;;8233190;28;19939;-49
2021/10/10 21:29:14;;;;;;;;;;;19.00;45.20;;;;;;8232973;28;19921;-49
2021/10/10 21:37:15;;;;;;;;;;;18.90;45.20;;;;;;8239700;28;19910;-48
2021/10/10 21:41:15;;;;;;;;;;;18.90;45.20;;;;;;8207791;28;19918;-48
2021/10/10 21:45:15;;;;;;;;;;;18.90;45.20;;;;;;8230131;28;19914;-48
2021/10/10 21:49:16;;;;;;;;;;;18.90;45.20;;;;;;8238836;28;19956;-48
2021/10/10 21:53:17;;;;;;;;;;;18.90;45.20;;;;;;8237284;28;19925;-48
2021/10/10 21:57:17;;;;;;;;;;;18.90;45.20;;;;;;8239038;28;20292;-49
2021/10/10 22:01:18;;;;;;;;;;;18.90;45.20;;;;;;8232612;28;19929;-49
2021/10/10 22:05:18;;;;;;;;;;;18.80;45.10;;;;;;8223826;28;20364;-48
2021/10/10 22:09:19;;;;;;;;;;;18.90;45.10;;;;;;8237168;28;20256;-48
2021/10/10 22:13:20;;;;;;;;;;;18.90;45.10;;;;;;8238963;28;19958;-53
2021/10/10 22:17:20;;;;;;;;;;;18.80;45.10;;;;;;8238208;28;19921;-49
2021/10/10 22:21:23;;;;;;;;;;;18.80;45.10;;;;;;8237521;28;19929;-48
2021/10/10 22:25:31;;;;;;;;;;;18.90;45.10;;;;;;8238068;28;19960;-48
2021/10/10 22:33:51;;;;;;;;;;;18.80;45.10;;;;;;8238369;28;19932;-48
2021/10/10 22:37:51;;;;;;;;;;;18.80;45.10;;;;;;8237465;28;19918;-49
2021/10/10 22:41:52;;;;;;;;;;;18.80;45.10;;;;;;8236941;28;19928;-49
2021/10/10 22:45:53;;;;;;;;;;;18.80;45.10;;;;;;8236297;28;20006;-48
2021/10/10 22:49:53;;;;;;;;;;;18.80;45.10;;;;;;8238120;28;19914;-48
2021/10/10 22:53:54;;;;;;;;;;;18.70;45.00;;;;;;8236799;28;19996;-48
2021/10/10 22:57:54;;;;;;;;;;;18.80;45.10;;;;;;8237009;28;19918;-49
2021/10/10 23:01:55;;;;;;;;;;;18.70;45.00;;;;;;8236782;28;19964;-49
2021/10/10 23:05:56;;;;;;;;;;;18.70;45.10;;;;;;8236210;28;20295;-49
2021/10/10 23:09:56;;;;;;;;;;;18.70;45.00;;;;;;8237377;28;19910;-49
2021/10/10 23:13:56;;;;;;;;;;;18.70;45.10;;;;;;8236457;28;20310;-48
2021/10/10 23:17:57;;;;;;;;;;;18.70;45.10;;;;;;8235947;28;19922;-48
2021/10/10 23:21:57;;;;;;;;;;;18.70;45.00;;;;;;8236069;28;19929;-49
2021/10/10 23:25:58;;;;;;;;;;;18.70;45.00;;;;;;8235141;28;19952;-49
2021/10/10 23:29:58;;;;;;;;;;;18.70;45.00;;;;;;8235467;28;19921;-47
2021/10/10 23:33:59;;;;;;;;;;;18.70;45.10;;;;;;8235870;28;19945;-49
2021/10/10 23:37:59;;;;;;;;;;;18.70;45.00;;;;;;8235666;28;19918;-48
2021/10/10 23:41:59;;;;;;;;;;;18.70;45.00;;;;;;8235452;28;19972;-47
2021/10/10 23:46:00;;;;;;;;;;;18.70;45.00;;;;;;8236109;28;19917;-48